createdAt,value
2022-08-07T00:02:37.481Z,99.90
2022-08-07T00:04:59.333Z,99.90
2022-08-07T00:07:27.473Z,99.90
2022-08-07T00:10:25.460Z,99.90
2022-08-07T00:12:59.685Z,99.90
2022-08-07T00:15:37.968Z,99.90
2022-08-07T00:18:19.269Z,99.90
2022-08-07T00:20:49.634Z,99.90
2022-08-07T00:23:17.413Z,99.90
2022-08-07T00:25:45.884Z,99.90
2022-08-07T00:28:22.199Z,99.90
2022-08-07T00:30:49.469Z,99.90
2022-08-07T00:33:17.093Z,99.90
2022-08-07T00:35:49.434Z,99.90
2022-08-07T00:38:16.887Z,99.90
2022-08-07T00:41:00.069Z,99.90
2022-08-07T00:44:00.388Z,99.90
2022-08-07T00:46:14.743Z,99.90
2022-08-07T00:48:42.309Z,99.90
2022-08-07T00:51:10.652Z,99.90
2022-08-07T00:53:39.361Z,99.90
2022-08-07T00:56:18.363Z,99.90
2022-08-07T00:58:47.176Z,99.90
2022-08-07T01:01:18.263Z,99.90
2022-08-07T01:03:57.020Z,99.90
2022-08-07T01:06:29.524Z,99.90
2022-08-07T01:09:00.901Z,99.90
2022-08-07T01:12:09.778Z,99.90
2022-08-07T01:14:28.256Z,99.90
2022-08-07T01:16:57.361Z,99.90
2022-08-07T01:19:27.566Z,99.90
2022-08-07T01:22:00.815Z,99.90
2022-08-07T01:24:32.183Z,99.90
2022-08-07T01:27:01.207Z,99.90
2022-08-07T01:29:31.238Z,99.90
2022-08-07T01:31:59.549Z,99.90
2022-08-07T01:34:31.198Z,99.90
2022-08-07T01:37:00.408Z,99.90
2022-08-07T01:39:39.678Z,99.90
2022-08-07T01:42:38.556Z,99.90
2022-08-07T01:45:09.883Z,99.90
2022-08-07T01:48:17.857Z,99.90
2022-08-07T01:50:32.748Z,99.90
2022-08-07T01:53:02.217Z,99.90
2022-08-07T01:55:47.103Z,99.90
2022-08-07T01:58:29.085Z,99.90
2022-08-07T02:01:25.448Z,99.90
2022-08-07T02:04:08.914Z,99.90
2022-08-07T02:06:39.859Z,99.90
2022-08-07T02:09:12.030Z,99.90
2022-08-07T02:12:17.591Z,99.90
2022-08-07T02:14:53.037Z,99.90
2022-08-07T02:17:27.523Z,99.90
2022-08-07T02:20:09.922Z,99.90
2022-08-07T02:22:45.415Z,99.90
2022-08-07T02:25:18.069Z,99.90
2022-08-07T02:27:51.188Z,99.90
2022-08-07T02:30:20.319Z,99.90
2022-08-07T02:33:04.017Z,99.90
2022-08-07T02:36:27.031Z,99.90
2022-08-07T02:38:32.855Z,99.90
2022-08-07T02:41:04.052Z,99.90
2022-08-07T02:43:34.860Z,99.90
2022-08-07T02:46:05.061Z,99.90
2022-08-07T02:48:32.473Z,99.90
2022-08-07T02:51:29.090Z,99.90
2022-08-07T02:54:01.696Z,99.90
2022-08-07T02:56:33.109Z,99.90
2022-08-07T02:59:05.875Z,99.90
2022-08-07T03:01:36.024Z,99.90
2022-08-07T03:04:13.014Z,99.90
2022-08-07T03:06:48.303Z,99.90
2022-08-07T03:09:43.294Z,99.90
2022-08-07T03:12:07.974Z,99.90
2022-08-07T03:14:40.775Z,99.90
2022-08-07T03:17:16.581Z,99.90
2022-08-07T03:19:44.090Z,99.90
2022-08-07T03:22:29.718Z,99.90
2022-08-07T03:25:00.300Z,99.90
2022-08-07T03:27:30.564Z,99.90
2022-08-07T03:30:10.818Z,99.90
2022-08-07T03:32:58.294Z,99.90
2022-08-07T03:35:43.691Z,99.90
2022-08-07T03:38:21.356Z,99.90
2022-08-07T03:40:57.719Z,99.90
2022-08-07T03:43:26.672Z,99.90
2022-08-07T03:46:00.026Z,99.90
2022-08-07T03:48:31.933Z,99.90
2022-08-07T03:51:02.257Z,99.90
2022-08-07T03:54:01.975Z,99.90
2022-08-07T03:56:33.001Z,99.90
2022-08-07T03:59:09.478Z,99.90
2022-08-07T04:01:45.733Z,99.90
2022-08-07T04:04:17.181Z,99.90
2022-08-07T04:06:45.246Z,99.90
2022-08-07T04:09:15.995Z,99.90
2022-08-07T04:12:24.346Z,99.90
2022-08-07T04:14:38.531Z,99.90
2022-08-07T04:17:20.243Z,99.90
2022-08-07T04:19:51.859Z,99.90
2022-08-07T04:22:27.583Z,99.90
2022-08-07T04:25:01.684Z,99.90
2022-08-07T04:27:35.951Z,99.90
2022-08-07T04:30:21.685Z,99.90
2022-08-07T04:33:00.680Z,99.90
2022-08-07T04:35:28.692Z,99.90
2022-08-07T04:38:09.272Z,99.90
2022-08-07T04:40:43.913Z,99.90
2022-08-07T04:43:53.427Z,99.90
2022-08-07T04:47:04.787Z,99.90
2022-08-07T04:50:12.720Z,99.90
2022-08-07T04:52:51.800Z,99.90
2022-08-07T04:58:10.890Z,99.90
2022-08-07T04:59:17.264Z,99.90
2022-08-07T05:02:20.692Z,99.90
2022-08-07T05:05:00.949Z,99.90
2022-08-07T05:08:03.786Z,99.90
2022-08-07T05:10:36.755Z,99.90
2022-08-07T05:14:55.525Z,99.90
2022-08-07T05:16:07.830Z,99.90
2022-08-07T05:18:44.142Z,99.90
2022-08-07T05:21:14.851Z,99.90
2022-08-07T05:23:50.154Z,99.90
2022-08-07T05:26:24.165Z,99.90
2022-08-07T05:28:56.378Z,99.90
2022-08-07T05:31:34.706Z,99.90
2022-08-07T05:34:05.639Z,99.90
2022-08-07T05:36:42.081Z,99.90
2022-08-07T05:40:06.793Z,99.90
2022-08-07T05:42:01.468Z,99.90
2022-08-07T05:44:37.744Z,99.90
2022-08-07T05:47:38.587Z,99.90
2022-08-07T05:50:04.210Z,99.90
2022-08-07T05:52:33.167Z,99.90
2022-08-07T05:55:10.149Z,99.90
2022-08-07T05:57:42.263Z,99.90
2022-08-07T06:00:16.518Z,99.90
2022-08-07T06:02:50.448Z,99.90
2022-08-07T06:05:25.800Z,99.90
2022-08-07T06:08:14.572Z,99.90
2022-08-07T06:10:47.040Z,99.90
2022-08-07T06:14:10.349Z,99.90
2022-08-07T06:16:08.740Z,99.90
2022-08-07T06:18:39.067Z,99.90
2022-08-07T06:22:14.805Z,99.90
2022-08-07T06:24:52.528Z,99.90
2022-08-07T06:26:43.392Z,99.90
2022-08-07T06:29:10.378Z,99.90
2022-08-07T06:31:49.548Z,99.90
2022-08-07T06:34:19.508Z,99.90
2022-08-07T06:36:48.067Z,99.90
2022-08-07T06:40:16.464Z,99.90
2022-08-07T06:42:19.192Z,99.90
2022-08-07T06:44:51.291Z,99.90
2022-08-07T06:47:19.622Z,99.90
2022-08-07T06:49:51.127Z,99.90
2022-08-07T06:52:31.429Z,99.90
2022-08-07T06:55:31.950Z,99.90
2022-08-07T06:58:10.281Z,99.90
2022-08-07T07:00:42.269Z,99.90
2022-08-07T07:03:14.316Z,99.90
2022-08-07T07:06:05.062Z,99.90
2022-08-07T07:08:33.175Z,99.90
2022-08-07T07:11:13.061Z,99.90
2022-08-07T07:13:58.044Z,99.90
2022-08-07T07:16:45.330Z,99.90
2022-08-07T07:19:57.428Z,99.90
2022-08-07T07:22:34.199Z,99.90
2022-08-07T07:25:14.274Z,99.90
2022-08-07T07:29:38.609Z,99.90
2022-08-07T07:31:44.605Z,99.90
2022-08-07T07:34:30.621Z,99.90
2022-08-07T07:37:14.273Z,99.90
2022-08-07T07:39:55.395Z,99.90
2022-08-07T07:42:32.571Z,99.90
2022-08-07T07:45:04.161Z,99.90
2022-08-07T07:47:52.306Z,99.90
2022-08-07T07:50:34.816Z,99.90
2022-08-07T07:53:20.143Z,99.90
2022-08-07T07:55:57.696Z,99.80
2022-08-07T07:58:40.368Z,99.90
2022-08-07T08:02:02.709Z,99.90
2022-08-07T08:04:11.256Z,99.00
2022-08-07T08:06:50.999Z,98.70
2022-08-07T08:09:29.415Z,99.20
2022-08-07T08:12:03.816Z,99.00
2022-08-07T08:14:37.019Z,99.40
2022-08-07T08:17:32.400Z,98.70
2022-08-07T08:20:17.569Z,98.60
2022-08-07T08:23:12.106Z,98.70
2022-08-07T08:26:06.867Z,99.30
2022-08-07T08:28:43.433Z,97.00
2022-08-07T08:31:58.573Z,97.70
2022-08-07T08:34:12.437Z,97.70
2022-08-07T08:36:57.714Z,96.40
2022-08-07T08:39:39.284Z,96.10
2022-08-07T08:42:36.877Z,94.90
2022-08-07T08:45:41.975Z,95.70
2022-08-07T08:48:57.348Z,95.20
2022-08-07T08:52:12.993Z,93.50
2022-08-07T08:54:47.580Z,94.30
2022-08-07T08:57:35.272Z,94.00
2022-08-07T09:00:09.404Z,93.00
2022-08-07T09:02:39.356Z,93.10
2022-08-07T09:05:52.929Z,91.90
2022-08-07T09:08:49.375Z,91.60
2022-08-07T09:11:43.527Z,90.90
2022-08-07T09:14:50.944Z,91.80
2022-08-07T09:17:59.348Z,91.90
2022-08-07T09:21:03.869Z,90.70
2022-08-07T09:24:32.305Z,90.40
2022-08-07T09:27:28.940Z,90.00
2022-08-07T09:30:14.758Z,89.00
2022-08-07T09:33:52.652Z,89.30
2022-08-07T09:36:35.682Z,90.20
2022-08-07T09:39:55.328Z,88.20
2022-08-07T09:42:46.682Z,87.30
2022-08-07T09:47:26.145Z,87.40
2022-08-07T09:50:01.603Z,86.50
2022-08-07T09:52:34.141Z,84.70
2022-08-07T09:56:02.862Z,85.40
2022-08-07T09:58:52.744Z,84.30
2022-08-07T10:01:54.715Z,83.40
2022-08-07T10:05:14.181Z,85.40
2022-08-07T10:08:18.292Z,85.60
2022-08-07T10:11:58.963Z,87.20
2022-08-07T10:14:11.271Z,89.20
2022-08-07T10:17:28.960Z,88.20
2022-08-07T10:20:54.683Z,88.10
2022-08-07T10:24:18.703Z,90.00
2022-08-07T10:27:30.249Z,90.00
2022-08-07T10:30:25.054Z,89.70
2022-08-07T10:34:05.532Z,90.00
2022-08-07T10:38:00.716Z,89.90
2022-08-07T10:41:09.828Z,90.00
2022-08-07T10:44:07.372Z,87.10
2022-08-07T10:47:15.866Z,86.50
2022-08-07T10:50:29.238Z,89.40
2022-08-07T10:53:08.361Z,86.00
2022-08-07T10:55:53.540Z,85.50
2022-08-07T10:58:59.725Z,84.70
2022-08-07T11:02:12.571Z,86.20
2022-08-07T11:05:49.178Z,87.10
2022-08-07T11:08:52.809Z,88.20
2022-08-07T11:11:37.706Z,89.00
2022-08-07T11:14:43.773Z,88.50
2022-08-07T11:17:45.821Z,89.00
2022-08-07T11:20:49.150Z,86.50
2022-08-07T11:23:57.318Z,86.70
2022-08-07T11:27:13.377Z,85.20
2022-08-07T11:30:18.024Z,85.70
2022-08-07T11:33:02.390Z,85.10
2022-08-07T11:35:59.485Z,85.90
2022-08-07T11:38:50.353Z,86.90
2022-08-07T11:42:02.327Z,85.20
2022-08-07T11:44:52.449Z,85.20
2022-08-07T11:48:06.001Z,86.80
2022-08-07T11:51:44.550Z,85.90
2022-08-07T11:54:36.027Z,86.70
2022-08-07T11:57:59.478Z,86.00
2022-08-07T12:00:31.375Z,86.60
2022-08-07T12:03:42.099Z,85.80
2022-08-07T12:06:37.056Z,83.70
2022-08-07T12:09:38.649Z,85.70
2022-08-07T12:12:31.648Z,84.40
2022-08-07T12:15:03.333Z,84.00
2022-08-07T12:18:07.967Z,84.10
2022-08-07T12:21:03.138Z,83.80
2022-08-07T12:24:07.575Z,84.10
2022-08-07T12:26:54.814Z,82.00
2022-08-07T12:29:42.757Z,82.40
2022-08-07T12:32:23.394Z,82.00
2022-08-07T12:34:56.238Z,82.30
2022-08-07T12:38:11.721Z,81.30
2022-08-07T12:40:46.443Z,80.90
2022-08-07T12:44:01.936Z,82.00
2022-08-07T12:46:32.571Z,80.30
2022-08-07T12:49:40.171Z,80.50
2022-08-07T12:52:36.423Z,80.10
2022-08-07T12:55:41.378Z,80.30
2022-08-07T12:58:35.522Z,77.00
2022-08-07T13:01:32.503Z,80.60
2022-08-07T13:04:49.208Z,78.80
2022-08-07T13:08:22.377Z,79.00
2022-08-07T13:12:02.005Z,79.00
2022-08-07T13:14:50.870Z,78.40
2022-08-07T13:17:39.843Z,77.60
2022-08-07T13:20:27.842Z,79.80
2022-08-07T13:24:00.634Z,80.20
2022-08-07T13:26:21.512Z,79.80
2022-08-07T13:29:15.477Z,81.50
2022-08-07T13:32:06.406Z,80.60
2022-08-07T13:35:24.065Z,82.70
2022-08-07T13:38:36.518Z,82.70
2022-08-07T13:41:21.045Z,83.80
2022-08-07T13:43:52.559Z,84.10
2022-08-07T13:46:32.906Z,83.80
2022-08-07T13:49:08.764Z,83.90
2022-08-07T13:52:22.745Z,85.50
2022-08-07T13:54:49.251Z,85.90
2022-08-07T13:57:23.975Z,85.10
2022-08-07T13:59:55.759Z,84.20
2022-08-07T14:02:39.846Z,85.00
2022-08-07T14:05:23.536Z,86.90
2022-08-07T14:08:00.846Z,86.60
2022-08-07T14:10:41.909Z,87.90
2022-08-07T14:13:18.515Z,86.80
2022-08-07T14:16:06.080Z,86.30
2022-08-07T14:18:57.032Z,86.30
2022-08-07T14:22:03.260Z,86.60
2022-08-07T14:24:36.312Z,85.50
2022-08-07T14:28:09.419Z,85.80
2022-08-07T14:30:11.816Z,85.10
2022-08-07T14:32:58.428Z,85.00
2022-08-07T14:38:30.535Z,85.50
2022-08-07T14:41:34.094Z,85.70
2022-08-07T14:44:21.983Z,85.70
2022-08-07T14:47:08.728Z,84.20
2022-08-07T14:49:57.319Z,84.70
2022-08-07T14:52:30.885Z,84.50
2022-08-07T14:55:00.490Z,84.30
2022-08-07T14:57:58.670Z,83.50
2022-08-07T15:03:22.242Z,83.70
2022-08-07T15:06:09.880Z,83.50
2022-08-07T15:08:58.457Z,84.50
2022-08-07T15:11:52.833Z,85.50
2022-08-07T15:14:25.514Z,85.20
2022-08-07T15:17:04.785Z,84.60
2022-08-07T15:20:33.292Z,84.20
2022-08-07T15:22:53.984Z,84.40
2022-08-07T15:25:36.940Z,85.00
2022-08-07T15:28:36.173Z,84.10
2022-08-07T15:31:05.656Z,84.40
2022-08-07T15:33:38.490Z,84.80
2022-08-07T15:36:11.689Z,85.00
2022-08-07T15:38:58.543Z,84.00
2022-08-07T15:42:45.977Z,84.30
2022-08-07T15:47:16.789Z,83.80
2022-08-07T15:50:05.090Z,83.50
2022-08-07T15:52:38.038Z,84.40
2022-08-07T15:55:11.670Z,85.20
2022-08-07T15:57:49.191Z,86.10
2022-08-07T16:00:33.587Z,89.40
2022-08-07T16:03:47.035Z,90.30
2022-08-07T16:06:14.055Z,90.90
2022-08-07T16:08:47.754Z,91.40
2022-08-07T16:12:00.761Z,91.80
2022-08-07T16:14:59.238Z,92.30
2022-08-07T16:18:04.561Z,92.20
2022-08-07T16:22:01.640Z,92.50
2022-08-07T16:24:09.247Z,92.60
2022-08-07T16:28:09.360Z,92.60
2022-08-07T16:31:50.691Z,93.00
2022-08-07T16:34:38.377Z,93.30
2022-08-07T16:38:04.938Z,93.20
2022-08-07T16:41:06.256Z,93.30
2022-08-07T16:44:06.218Z,93.50
2022-08-07T16:48:06.074Z,93.50
2022-08-07T16:51:57.641Z,93.80
2022-08-07T16:54:40.403Z,94.20
2022-08-07T16:58:01.863Z,94.60
2022-08-07T17:00:50.037Z,94.60
2022-08-07T17:03:58.528Z,94.70
2022-08-07T17:06:42.562Z,94.90
2022-08-07T17:10:06.421Z,95.00
2022-08-07T17:12:46.427Z,94.70
2022-08-07T17:15:44.693Z,95.20
2022-08-07T17:18:46.120Z,95.40
2022-08-07T17:21:23.689Z,95.30
2022-08-07T17:24:23.685Z,95.40
2022-08-07T17:27:19.784Z,95.30
2022-08-07T17:30:20.000Z,95.30
2022-08-07T17:34:10.082Z,95.30
2022-08-07T17:36:32.596Z,95.40
2022-08-07T17:39:58.374Z,95.70
2022-08-07T17:42:59.214Z,95.50
2022-08-07T17:45:39.718Z,95.60
2022-08-07T17:48:31.253Z,95.40
2022-08-07T17:51:21.360Z,95.40
2022-08-07T17:54:29.887Z,95.70
2022-08-07T17:57:58.981Z,95.70
2022-08-07T18:00:34.301Z,95.90
2022-08-07T18:03:20.908Z,96.10
2022-08-07T18:06:09.260Z,96.10
2022-08-07T18:09:01.918Z,96.30
2022-08-07T18:12:20.142Z,96.40
2022-08-07T18:15:17.058Z,96.50
2022-08-07T18:18:45.627Z,96.50
2022-08-07T18:21:53.529Z,96.70
2022-08-07T18:24:51.143Z,97.20
2022-08-07T18:28:04.632Z,96.90
2022-08-07T18:30:44.806Z,96.90
2022-08-07T18:34:37.854Z,96.90
2022-08-07T18:38:57.603Z,97.00
2022-08-07T18:40:56.180Z,97.30
2022-08-07T18:43:57.244Z,97.70
2022-08-07T18:47:00.040Z,98.00
2022-08-07T18:50:40.786Z,98.10
2022-08-07T18:53:46.802Z,98.30
2022-08-07T18:57:30.331Z,98.50
2022-08-07T19:00:33.401Z,98.90
2022-08-07T19:03:18.434Z,99.10
2022-08-07T19:06:04.029Z,99.30
2022-08-07T19:08:46.328Z,99.50
2022-08-07T19:11:37.771Z,99.90
2022-08-07T19:26:29.037Z,99.90
2022-08-07T19:30:57.029Z,99.40
2022-08-07T19:32:10.704Z,99.70
2022-08-07T19:34:55.140Z,99.90
2022-08-07T19:37:25.350Z,99.90
2022-08-07T19:40:16.838Z,99.90
2022-08-07T19:42:59.324Z,99.90
2022-08-07T19:46:05.930Z,99.90
2022-08-07T19:48:18.846Z,99.90
2022-08-07T19:50:55.288Z,99.90
2022-08-07T19:54:32.589Z,99.90
2022-08-07T19:58:00.224Z,99.90
2022-08-07T19:59:11.947Z,99.90
2022-08-07T20:01:57.618Z,99.90
2022-08-07T20:04:37.657Z,99.90
2022-08-07T20:07:10.098Z,99.90
2022-08-07T20:10:35.654Z,99.90
2022-08-07T20:12:39.332Z,99.90
2022-08-07T20:15:22.138Z,99.90
2022-08-07T20:18:01.505Z,99.90
2022-08-07T20:20:33.556Z,99.90
2022-08-07T20:23:40.644Z,99.90
2022-08-07T20:26:10.136Z,99.90
2022-08-07T20:28:41.364Z,99.90
2022-08-07T20:31:21.961Z,99.90
2022-08-07T20:33:58.728Z,99.90
2022-08-07T20:36:30.804Z,99.90
2022-08-07T20:39:00.275Z,99.90
2022-08-07T20:41:34.115Z,99.90
2022-08-07T20:44:10.392Z,99.90
2022-08-07T20:46:44.600Z,99.90
2022-08-07T20:49:59.540Z,99.90
2022-08-07T20:52:16.614Z,99.90
2022-08-07T20:54:53.186Z,99.90
2022-08-07T20:57:28.168Z,99.90
2022-08-07T21:00:09.205Z,99.90
2022-08-07T21:05:54.937Z,99.90
2022-08-07T21:08:38.225Z,99.90
2022-08-07T21:11:16.256Z,99.90
2022-08-07T21:14:29.536Z,99.90
2022-08-07T21:18:01.294Z,99.90
2022-08-07T21:20:04.405Z,99.90
2022-08-07T21:22:45.158Z,99.90
2022-08-07T21:25:39.038Z,99.90
2022-08-07T21:28:16.772Z,99.90
2022-08-07T21:31:49.916Z,99.90
2022-08-07T21:34:48.677Z,99.90
2022-08-07T21:38:30.318Z,99.90
2022-08-07T21:41:14.712Z,99.90
2022-08-07T21:44:25.365Z,99.90
2022-08-07T21:47:12.254Z,99.90
2022-08-07T21:50:05.190Z,99.90
2022-08-07T21:52:54.904Z,99.90
2022-08-07T21:55:30.220Z,99.90
2022-08-07T21:58:22.215Z,99.90
2022-08-07T22:01:19.904Z,99.90
2022-08-07T22:04:09.348Z,99.90
2022-08-07T22:07:00.662Z,99.90
2022-08-07T22:09:38.074Z,99.90
2022-08-07T22:12:32.556Z,99.90
2022-08-07T22:16:44.088Z,99.90
2022-08-07T22:18:20.653Z,99.90
2022-08-07T22:21:21.641Z,99.90
2022-08-07T22:24:15.777Z,99.90
2022-08-07T22:26:49.845Z,99.90
2022-08-07T22:29:47.473Z,99.90
2022-08-07T22:32:42.276Z,99.90
2022-08-07T22:35:11.804Z,99.90
2022-08-07T22:38:10.297Z,99.90
2022-08-07T22:41:03.496Z,99.90
2022-08-07T22:43:56.395Z,99.90
2022-08-07T22:47:03.378Z,99.90
2022-08-07T22:50:07.858Z,99.90
2022-08-07T22:52:59.804Z,99.90
2022-08-07T22:55:59.568Z,99.90
2022-08-07T22:59:00.672Z,99.90
2022-08-07T23:01:49.459Z,99.90
2022-08-07T23:04:32.746Z,99.90
2022-08-07T23:07:40.265Z,99.90
2022-08-07T23:10:46.987Z,99.90
2022-08-07T23:14:09.018Z,99.90
2022-08-07T23:16:54.899Z,99.90
2022-08-07T23:20:14.946Z,99.90
2022-08-07T23:24:05.086Z,99.90
2022-08-07T23:26:23.496Z,99.90
2022-08-07T23:30:35.908Z,99.90
2022-08-07T23:34:20.916Z,99.90
2022-08-07T23:36:30.326Z,99.90
2022-08-07T23:39:42.991Z,99.90
2022-08-07T23:42:30.459Z,99.90
2022-08-07T23:45:43.543Z,99.90
2022-08-07T23:48:42.073Z,99.90
2022-08-07T23:53:01.445Z,99.90
2022-08-07T23:54:54.446Z,99.90
2022-08-07T23:57:42.508Z,99.90
